createdAt,value
2019-05-07T00:02:49.412Z,6.47
2019-05-07T00:05:54.080Z,6.37
2019-05-07T00:08:58.982Z,6.23
2019-05-07T00:12:05.138Z,6.10
2019-05-07T00:15:09.802Z,6.06
2019-05-07T00:18:14.503Z,6.13
2019-05-07T00:21:18.933Z,5.92
2019-05-07T00:24:24.131Z,5.82
2019-05-07T00:27:28.897Z,5.82
2019-05-07T00:30:33.408Z,5.76
2019-05-07T00:33:38.711Z,5.73
2019-05-07T00:36:53.679Z,5.69
2019-05-07T00:40:09.856Z,5.65
2019-05-07T00:43:22.694Z,5.80
2019-05-07T00:46:29.127Z,5.66
2019-05-07T00:49:33.564Z,5.63
2019-05-07T00:52:38.280Z,5.58
2019-05-07T00:55:42.787Z,5.67
2019-05-07T00:58:47.235Z,5.67
2019-05-07T01:01:52.820Z,5.55
2019-05-07T01:04:57.377Z,5.43
2019-05-07T01:08:02.550Z,5.40
2019-05-07T01:11:07.388Z,5.33
2019-05-07T01:14:12.446Z,5.49
2019-05-07T01:17:17.043Z,5.52
2019-05-07T01:20:22.145Z,5.44
2019-05-07T01:23:27.027Z,5.38
2019-05-07T01:26:32.913Z,5.47
2019-05-07T01:29:37.583Z,5.42
2019-05-07T01:32:53.316Z,5.37
2019-05-07T01:36:15.628Z,5.40
2019-05-07T01:39:20.064Z,5.22
2019-05-07T01:42:24.799Z,5.13
2019-05-07T01:45:43.275Z,5.07
2019-05-07T01:48:35.401Z,5.03
2019-05-07T01:51:42.107Z,4.91
2019-05-07T01:54:47.485Z,4.94
2019-05-07T01:57:52.462Z,5.06
2019-05-07T02:00:56.881Z,5.01
2019-05-07T02:04:03.238Z,4.96
2019-05-07T02:07:15.546Z,4.85
2019-05-07T02:10:37.434Z,4.86
2019-05-07T02:13:42.112Z,5.20
2019-05-07T02:16:46.598Z,5.19
2019-05-07T02:19:52.758Z,5.10
2019-05-07T02:22:57.631Z,4.85
2019-05-07T02:26:02.552Z,4.59
2019-05-07T02:29:07.304Z,4.53
2019-05-07T02:32:13.254Z,4.54
2019-05-07T02:35:17.948Z,4.45
2019-05-07T02:38:33.992Z,4.36
2019-05-07T02:41:38.819Z,4.33
2019-05-07T02:44:59.719Z,4.16
2019-05-07T02:48:04.159Z,4.19
2019-05-07T02:51:16.567Z,4.09
2019-05-07T02:54:28.423Z,3.95
2019-05-07T02:57:34.060Z,4.14
2019-05-07T03:00:39.266Z,4.16
2019-05-07T03:03:44.914Z,4.02
2019-05-07T03:06:49.499Z,4.04
2019-05-07T03:09:54.143Z,4.06
2019-05-07T03:12:58.749Z,4.10
2019-05-07T03:16:03.942Z,4.16
2019-05-07T03:19:08.541Z,4.13
2019-05-07T03:22:13.992Z,4.35
2019-05-07T03:25:23.269Z,4.39
2019-05-07T03:28:28.087Z,4.43
2019-05-07T03:31:36.020Z,4.33
2019-05-07T03:34:46.728Z,4.45
2019-05-07T03:37:48.548Z,4.51
2019-05-07T03:40:53.336Z,4.46
2019-05-07T03:43:59.443Z,4.54
2019-05-07T03:47:23.559Z,4.70
2019-05-07T03:50:26.699Z,4.57
2019-05-07T03:53:33.879Z,4.55
2019-05-07T03:56:37.895Z,4.58
2019-05-07T03:59:43.173Z,4.63
2019-05-07T04:02:47.948Z,4.63
2019-05-07T04:05:53.333Z,4.60
2019-05-07T04:08:57.913Z,4.74
2019-05-07T04:12:03.825Z,4.84
2019-05-07T04:15:08.798Z,4.99
2019-05-07T04:18:13.618Z,4.83
2019-05-07T04:21:18.114Z,4.71
2019-05-07T04:24:27.125Z,4.72
2019-05-07T04:27:36.125Z,4.68
2019-05-07T04:30:43.868Z,4.76
2019-05-07T04:33:47.689Z,4.93
2019-05-07T04:36:53.466Z,4.82
2019-05-07T04:39:58.142Z,4.70
2019-05-07T04:43:03.021Z,4.59
2019-05-07T04:46:07.721Z,4.65
2019-05-07T04:49:13.099Z,4.63
2019-05-07T04:52:25.273Z,4.62
2019-05-07T04:55:29.708Z,4.66
2019-05-07T04:58:34.174Z,4.73
2019-05-07T05:01:43.392Z,4.73
2019-05-07T05:04:46.836Z,4.83
2019-05-07T05:07:53.311Z,5.14
2019-05-07T05:10:57.745Z,5.38
2019-05-07T05:14:07.155Z,5.47
2019-05-07T05:17:09.269Z,5.49
2019-05-07T05:20:14.714Z,5.49
2019-05-07T05:23:23.247Z,5.56
2019-05-07T05:26:27.685Z,5.71
2019-05-07T05:29:34.545Z,5.91
2019-05-07T05:32:38.990Z,6.11
2019-05-07T05:35:43.433Z,6.28
2019-05-07T05:38:47.873Z,6.45
2019-05-07T05:41:53.955Z,6.53
2019-05-07T05:44:58.709Z,6.65
2019-05-07T05:48:07.390Z,6.69
2019-05-07T05:51:14.927Z,6.76
2019-05-07T05:54:37.403Z,6.80
2019-05-07T05:57:43.482Z,6.99
2019-05-07T06:01:06.284Z,7.00
2019-05-07T06:04:22.241Z,7.23
2019-05-07T06:07:31.984Z,7.43
2019-05-07T06:10:44.685Z,7.74
2019-05-07T06:13:52.715Z,8.11
2019-05-07T06:17:08.093Z,8.60
2019-05-07T06:20:14.913Z,8.87
2019-05-07T06:23:35.720Z,9.09
2019-05-07T06:26:42.044Z,9.37
2019-05-07T06:29:46.620Z,9.60
2019-05-07T06:32:52.297Z,9.86
2019-05-07T06:35:56.772Z,9.76
2019-05-07T06:39:02.869Z,9.96
2019-05-07T06:42:25.609Z,10.08
2019-05-07T06:45:43.220Z,10.22
2019-05-07T06:48:47.677Z,10.22
2019-05-07T06:51:52.918Z,10.30
2019-05-07T06:54:58.071Z,10.42
2019-05-07T06:58:03.672Z,10.64
2019-05-07T07:01:16.339Z,10.75
2019-05-07T07:04:22.629Z,10.98
2019-05-07T07:07:33.929Z,11.00
2019-05-07T07:10:53.159Z,11.07
2019-05-07T07:13:57.605Z,10.96
2019-05-07T07:17:02.373Z,11.07
2019-05-07T07:20:08.052Z,11.03
2019-05-07T07:23:12.498Z,11.25
2019-05-07T07:26:17.408Z,11.44
2019-05-07T07:29:23.511Z,11.38
2019-05-07T07:32:39.162Z,11.59
2019-05-07T07:35:43.623Z,11.83
2019-05-07T07:38:48.086Z,11.65
2019-05-07T07:41:54.202Z,11.78
2019-05-07T07:45:16.012Z,12.00
2019-05-07T07:48:24.070Z,12.13
2019-05-07T07:51:37.847Z,11.72
2019-05-07T07:54:33.068Z,12.04
2019-05-07T07:57:48.139Z,12.28
2019-05-07T08:01:03.211Z,12.37
2019-05-07T08:04:08.033Z,12.51
2019-05-07T08:07:12.611Z,12.82
2019-05-07T08:10:17.296Z,13.16
2019-05-07T08:13:22.911Z,13.43
2019-05-07T08:16:27.467Z,13.35
2019-05-07T08:19:32.832Z,13.26
2019-05-07T08:22:37.546Z,13.01
2019-05-07T08:25:47.922Z,12.75
2019-05-07T08:28:52.502Z,12.50
2019-05-07T08:32:02.509Z,12.67
2019-05-07T08:35:14.285Z,13.14
2019-05-07T08:38:19.234Z,13.41
2019-05-07T08:41:26.525Z,13.31
2019-05-07T08:44:38.080Z,12.46
2019-05-07T08:47:44.493Z,12.29
2019-05-07T08:50:49.209Z,12.07
2019-05-07T08:54:05.485Z,11.97
2019-05-07T08:57:11.746Z,11.81
2019-05-07T09:00:18.940Z,11.82
2019-05-07T09:03:42.922Z,11.79
2019-05-07T09:06:47.181Z,11.79
2019-05-07T09:09:52.303Z,11.75
2019-05-07T09:12:57.253Z,11.60
2019-05-07T09:16:02.411Z,11.81
2019-05-07T09:19:07.518Z,11.87
2019-05-07T09:22:12.746Z,11.81
2019-05-07T09:25:17.505Z,11.88
2019-05-07T09:28:22.663Z,12.12
2019-05-07T09:31:28.730Z,12.21
2019-05-07T09:34:37.520Z,12.06
2019-05-07T09:37:42.266Z,12.23
2019-05-07T09:40:46.720Z,12.36
2019-05-07T09:43:51.885Z,12.55
2019-05-07T09:46:56.516Z,12.82
2019-05-07T09:50:05.533Z,13.04
2019-05-07T09:53:07.625Z,13.37
2019-05-07T09:56:12.405Z,13.53
2019-05-07T09:59:16.955Z,13.39
2019-05-07T10:02:22.717Z,13.46
2019-05-07T10:05:27.264Z,13.48
2019-05-07T10:08:33.558Z,13.22
2019-05-07T10:11:52.462Z,12.89
2019-05-07T10:14:57.073Z,12.97
2019-05-07T10:18:08.916Z,12.93
2019-05-07T10:21:13.365Z,12.85
2019-05-07T10:24:17.892Z,12.85
2019-05-07T10:27:22.934Z,13.01
2019-05-07T10:30:27.667Z,13.36
2019-05-07T10:33:32.151Z,13.58
2019-05-07T10:36:36.551Z,13.88
2019-05-07T10:39:43.009Z,14.04
2019-05-07T10:42:47.693Z,14.43
2019-05-07T10:46:05.430Z,14.86
2019-05-07T10:49:12.348Z,15.18
2019-05-07T10:52:16.859Z,15.51
2019-05-07T10:55:22.314Z,15.33
2019-05-07T10:58:26.840Z,15.11
2019-05-07T11:01:36.474Z,15.28
2019-05-07T11:04:43.559Z,15.65
2019-05-07T11:07:47.680Z,15.92
2019-05-07T11:10:52.271Z,16.34
2019-05-07T11:13:56.653Z,16.26
2019-05-07T11:17:11.979Z,16.18
2019-05-07T11:20:17.466Z,15.81
2019-05-07T11:23:22.323Z,15.73
2019-05-07T11:26:27.307Z,15.64
2019-05-07T11:29:33.039Z,15.68
2019-05-07T11:32:38.835Z,15.13
2019-05-07T11:35:43.283Z,15.74
2019-05-07T11:38:48.002Z,16.37
2019-05-07T11:41:54.083Z,16.51
2019-05-07T11:44:58.781Z,16.67
2019-05-07T11:48:04.395Z,16.81
2019-05-07T11:51:12.274Z,17.23
2019-05-07T11:54:16.766Z,17.43
2019-05-07T11:57:22.142Z,17.40
2019-05-07T12:00:36.038Z,17.30
2019-05-07T12:03:42.786Z,17.24
2019-05-07T12:06:46.660Z,17.23
2019-05-07T12:09:52.644Z,16.84
2019-05-07T12:12:57.435Z,16.80
2019-05-07T12:16:03.032Z,16.79
2019-05-07T12:19:07.654Z,16.71
2019-05-07T12:22:12.341Z,16.60
2019-05-07T12:25:24.158Z,16.60
2019-05-07T12:28:28.597Z,16.71
2019-05-07T12:31:52.375Z,16.74
2019-05-07T12:34:58.407Z,16.93
2019-05-07T12:38:03.242Z,17.37
2019-05-07T12:41:26.203Z,17.55
2019-05-07T12:44:31.991Z,17.60
2019-05-07T12:47:36.612Z,17.48
2019-05-07T12:50:43.173Z,16.82
2019-05-07T12:53:52.516Z,16.44
2019-05-07T12:56:58.664Z,16.30
2019-05-07T13:00:22.929Z,16.33
2019-05-07T13:03:34.802Z,16.36
2019-05-07T13:06:40.913Z,16.39
2019-05-07T13:09:45.338Z,16.75
2019-05-07T13:12:49.777Z,17.41
2019-05-07T13:15:54.234Z,17.51
2019-05-07T13:18:58.913Z,17.61
2019-05-07T13:22:03.644Z,17.86
2019-05-07T13:25:08.434Z,17.78
2019-05-07T13:28:12.866Z,17.77
2019-05-07T13:31:22.728Z,18.08
2019-05-07T13:34:27.018Z,18.51
2019-05-07T13:37:33.119Z,18.93
2019-05-07T13:40:37.661Z,19.23
2019-05-07T13:43:53.985Z,18.85
2019-05-07T13:47:09.314Z,18.50
2019-05-07T13:50:14.098Z,18.26
2019-05-07T13:53:19.109Z,18.49
2019-05-07T13:56:23.628Z,18.40
2019-05-07T13:59:28.129Z,18.39
2019-05-07T14:02:32.597Z,18.58
2019-05-07T14:05:37.413Z,18.57
2019-05-07T14:08:43.504Z,18.67
2019-05-07T14:11:48.212Z,18.92
2019-05-07T14:14:53.278Z,18.69
2019-05-07T14:17:58.178Z,18.68
2019-05-07T14:21:04.491Z,18.58
2019-05-07T14:24:09.217Z,18.55
2019-05-07T14:27:13.678Z,18.90
2019-05-07T14:30:21.684Z,18.28
2019-05-07T14:33:45.902Z,18.15
2019-05-07T14:36:54.721Z,17.40
2019-05-07T14:39:59.454Z,16.99
2019-05-07T14:43:17.602Z,16.22
2019-05-07T14:46:22.842Z,15.79
2019-05-07T14:49:27.675Z,15.62
2019-05-07T14:52:35.621Z,15.96
2019-05-07T14:55:38.375Z,16.54
2019-05-07T14:58:42.891Z,16.61
2019-05-07T15:01:47.624Z,15.94
2019-05-07T15:04:52.624Z,16.04
2019-05-07T15:08:08.244Z,16.60
2019-05-07T15:11:03.368Z,17.14
2019-05-07T15:14:08.187Z,17.08
2019-05-07T15:17:14.558Z,16.81
2019-05-07T15:20:18.993Z,17.34
2019-05-07T15:23:28.629Z,17.89
2019-05-07T15:26:33.140Z,18.11
2019-05-07T15:29:37.593Z,18.09
2019-05-07T15:32:42.770Z,18.12
2019-05-07T15:35:47.423Z,17.81
2019-05-07T15:38:52.269Z,17.46
2019-05-07T15:41:56.860Z,17.19
2019-05-07T15:45:02.250Z,17.02
2019-05-07T15:48:07.293Z,16.97
2019-05-07T15:51:12.041Z,16.93
2019-05-07T15:54:16.753Z,17.46
2019-05-07T15:57:25.795Z,17.87
2019-05-07T16:00:33.478Z,18.20
2019-05-07T16:03:39.834Z,18.18
2019-05-07T16:06:44.285Z,18.14
2019-05-07T16:09:48.736Z,17.91
2019-05-07T16:12:53.664Z,17.74
2019-05-07T16:15:58.178Z,17.13
2019-05-07T16:19:04.637Z,16.76
2019-05-07T16:22:12.731Z,16.69
2019-05-07T16:25:17.270Z,16.66
2019-05-07T16:28:21.980Z,16.39
2019-05-07T16:31:26.768Z,16.26
2019-05-07T16:34:32.525Z,16.16
2019-05-07T16:37:37.078Z,16.37
2019-05-07T16:40:42.909Z,16.52
2019-05-07T16:43:47.704Z,16.62
2019-05-07T16:46:53.501Z,16.57
2019-05-07T16:49:58.294Z,16.59
2019-05-07T16:53:02.973Z,16.49
2019-05-07T16:56:07.751Z,16.30
2019-05-07T16:59:12.754Z,16.14
2019-05-07T17:02:18.840Z,16.02
2019-05-07T17:05:23.680Z,15.90
2019-05-07T17:08:42.434Z,15.75
2019-05-07T17:11:47.180Z,15.74
2019-05-07T17:14:51.904Z,15.78
2019-05-07T17:17:59.467Z,15.72
2019-05-07T17:21:04.227Z,15.64
2019-05-07T17:24:08.679Z,15.59
2019-05-07T17:27:13.116Z,15.58
2019-05-07T17:30:17.553Z,15.52
2019-05-07T17:33:23.011Z,15.35
2019-05-07T17:36:27.671Z,15.17
2019-05-07T17:39:32.336Z,15.14
2019-05-07T17:42:36.756Z,15.02
2019-05-07T17:45:42.916Z,14.91
2019-05-07T17:48:47.857Z,14.86
2019-05-07T17:51:52.748Z,14.87
2019-05-07T17:54:58.423Z,14.77
2019-05-07T17:58:02.892Z,14.69
2019-05-07T18:01:07.678Z,14.63
2019-05-07T18:04:12.537Z,14.48
2019-05-07T18:07:16.988Z,14.37
2019-05-07T18:10:21.801Z,14.24
2019-05-07T18:13:26.589Z,14.15
2019-05-07T18:16:35.191Z,13.95
2019-05-07T18:19:39.964Z,13.80
2019-05-07T18:22:44.693Z,13.72
2019-05-07T18:25:50.791Z,13.56
2019-05-07T18:28:55.223Z,13.49
2019-05-07T18:32:04.008Z,13.30
2019-05-07T18:35:08.986Z,13.10
2019-05-07T18:38:13.420Z,12.89
2019-05-07T18:41:18.292Z,12.72
2019-05-07T18:44:22.730Z,12.57
2019-05-07T18:47:27.551Z,12.40
2019-05-07T18:50:32.600Z,12.27
2019-05-07T18:53:37.065Z,12.08
2019-05-07T18:56:42.089Z,11.97
2019-05-07T18:59:46.619Z,11.84
2019-05-07T19:02:52.312Z,11.74
2019-05-07T19:05:57.415Z,11.64
2019-05-07T19:09:01.927Z,11.55
2019-05-07T19:12:07.920Z,11.51
2019-05-07T19:15:14.322Z,11.46
2019-05-07T19:18:19.072Z,11.34
2019-05-07T19:21:23.621Z,11.39
2019-05-07T19:24:40.831Z,11.35
2019-05-07T19:27:34.584Z,11.25
2019-05-07T19:30:41.920Z,11.15
2019-05-07T19:33:45.898Z,11.14
2019-05-07T19:36:52.063Z,11.01
2019-05-07T19:39:56.749Z,11.00
2019-05-07T19:43:03.028Z,11.02
2019-05-07T19:46:07.992Z,10.95
2019-05-07T19:49:12.443Z,10.90
2019-05-07T19:52:17.336Z,10.89
2019-05-07T19:55:22.078Z,10.86
2019-05-07T19:58:26.637Z,10.82
2019-05-07T20:01:32.716Z,10.81
2019-05-07T20:04:37.156Z,10.73
2019-05-07T20:07:42.292Z,10.60
2019-05-07T20:10:48.552Z,10.56
2019-05-07T20:13:54.256Z,10.61
2019-05-07T20:16:58.651Z,10.56
2019-05-07T20:20:03.744Z,10.54
2019-05-07T20:23:08.192Z,10.49
2019-05-07T20:26:12.848Z,10.47
2019-05-07T20:29:17.684Z,10.39
2019-05-07T20:32:22.553Z,10.33
2019-05-07T20:35:27.355Z,10.26
2019-05-07T20:38:32.197Z,10.24
2019-05-07T20:41:37.072Z,10.14
2019-05-07T20:44:42.590Z,10.06
2019-05-07T20:47:47.100Z,9.97
2019-05-07T20:50:52.200Z,9.96
2019-05-07T20:54:16.635Z,9.84
2019-05-07T20:57:22.717Z,9.91
2019-05-07T21:00:32.401Z,9.87
2019-05-07T21:03:36.863Z,9.81
2019-05-07T21:06:43.226Z,9.78
2019-05-07T21:09:47.753Z,9.80
2019-05-07T21:12:52.496Z,9.81
2019-05-07T21:15:57.224Z,9.86
2019-05-07T21:19:02.142Z,9.74
2019-05-07T21:22:06.656Z,9.74
2019-05-07T21:25:12.035Z,9.65
2019-05-07T21:28:16.627Z,9.62
2019-05-07T21:31:22.731Z,9.62
2019-05-07T21:34:27.409Z,9.53
2019-05-07T21:37:32.422Z,9.50
2019-05-07T21:40:36.963Z,9.46
2019-05-07T21:43:45.599Z,9.44
2019-05-07T21:46:48.213Z,9.44
2019-05-07T21:49:55.140Z,9.38
2019-05-07T21:53:12.049Z,9.17
2019-05-07T21:56:18.583Z,9.22
2019-05-07T21:59:27.178Z,9.29
2019-05-07T22:02:32.783Z,9.21
2019-05-07T22:05:37.359Z,9.23
2019-05-07T22:08:41.806Z,9.25
2019-05-07T22:11:46.240Z,9.21
2019-05-07T22:14:50.962Z,9.21
2019-05-07T22:17:55.711Z,9.19
2019-05-07T22:21:00.141Z,9.14
2019-05-07T22:24:04.727Z,9.13
2019-05-07T22:27:09.472Z,9.19
2019-05-07T22:30:15.946Z,9.10
2019-05-07T22:33:22.351Z,8.95
2019-05-07T22:36:26.637Z,8.97
2019-05-07T22:39:32.733Z,8.98
2019-05-07T22:42:37.631Z,8.94
2019-05-07T22:45:42.832Z,8.93
2019-05-07T22:48:47.371Z,8.86
2019-05-07T22:51:54.629Z,8.94
2019-05-07T22:54:57.959Z,8.93
2019-05-07T22:58:04.359Z,8.98
2019-05-07T23:01:13.595Z,9.12
2019-05-07T23:04:18.330Z,9.09
2019-05-07T23:07:23.058Z,9.02
2019-05-07T23:10:27.498Z,9.07
2019-05-07T23:13:32.200Z,9.14
2019-05-07T23:16:36.642Z,9.11
2019-05-07T23:19:41.941Z,9.19
2019-05-07T23:22:46.397Z,9.19
2019-05-07T23:25:52.420Z,9.30
2019-05-07T23:28:56.952Z,9.33
2019-05-07T23:32:01.948Z,9.18
2019-05-07T23:35:06.647Z,9.20
2019-05-07T23:38:12.197Z,9.08
2019-05-07T23:41:22.513Z,9.06
2019-05-07T23:44:26.955Z,9.14
2019-05-07T23:47:31.887Z,9.04
2019-05-07T23:50:36.341Z,9.00
2019-05-07T23:53:44.169Z,8.94
2019-05-07T23:57:01.803Z,8.90
2019-05-07T23:59:53.409Z,8.79
